createdAt,value
2023-05-01T00:12:34.822Z,7.7
2023-05-01T00:14:36.792Z,7.6
2023-05-01T00:16:38.818Z,7.7
2023-05-01T00:18:40.781Z,7.6
2023-05-01T00:20:42.762Z,7.6
2023-05-01T00:22:47.800Z,7.6
2023-05-01T00:24:49.752Z,7.6
2023-05-01T00:26:51.737Z,7.5
2023-05-01T00:36:05.244Z,7.3
2023-05-01T00:38:07.229Z,7.3
2023-05-01T00:40:09.203Z,7.3
2023-05-01T00:42:11.171Z,7.3
2023-05-01T00:44:13.147Z,7.3
2023-05-01T00:52:24.199Z,7.3
2023-05-01T00:54:26.096Z,7.3
2023-05-01T00:56:28.067Z,7.3
2023-05-01T01:00:32.047Z,7.3
2023-05-01T01:02:34.035Z,7.3
2023-05-01T01:04:39.094Z,7.3
2023-05-01T01:06:41.070Z,7.3
2023-05-01T01:08:42.999Z,7.2
2023-05-01T01:10:44.995Z,7.2
2023-05-01T01:12:46.939Z,7.2
2023-05-01T01:14:48.928Z,7.2
2023-05-01T01:16:50.990Z,7.1
2023-05-01T01:18:55.910Z,7.1
2023-05-01T01:20:57.890Z,7.1
2023-05-01T01:22:59.913Z,7.1
2023-05-01T01:25:22.942Z,7.1
2023-05-01T01:27:25.050Z,7.1
2023-05-01T01:29:27.025Z,7.1
2023-05-01T01:33:34.050Z,7.1
2023-05-01T01:35:36.026Z,7.1
2023-05-01T01:37:38.093Z,7.1
2023-05-01T01:39:40.181Z,7.1
2023-05-01T01:41:42.164Z,7.2
2023-05-01T01:45:49.211Z,7.1
2023-05-01T01:49:53.205Z,7.1
2023-05-01T01:51:55.082Z,7.1
2023-05-01T01:58:01.007Z,7.1
2023-05-01T02:02:08.203Z,7
2023-05-01T02:04:10.075Z,7
2023-05-01T02:06:12.020Z,7
2023-05-01T02:08:13.963Z,6.9
2023-05-01T02:12:17.928Z,6.9
2023-05-01T02:14:22.968Z,6.8
2023-05-01T02:16:24.976Z,6.8
2023-05-01T02:18:26.903Z,6.7
2023-05-01T02:19:29.422Z,6.7
2023-05-01T02:27:40.365Z,6.5
2023-05-01T02:37:51.714Z,6.3
2023-05-01T02:39:53.794Z,6.3
2023-05-01T02:41:58.700Z,6.2
2023-05-01T02:44:00.679Z,6.2
2023-05-01T02:46:02.668Z,6.2
2023-05-01T02:48:04.678Z,6.1
2023-05-01T02:50:06.585Z,6.1
2023-05-01T02:58:17.636Z,6.1
2023-05-01T03:02:21.536Z,6.1
2023-05-01T03:04:23.648Z,6.1
2023-05-01T03:08:27.629Z,6
2023-05-01T03:14:36.602Z,5.9
2023-05-01T03:15:39.077Z,5.9
2023-05-01T03:17:41.175Z,5.9
2023-05-01T03:19:43.100Z,6
2023-05-01T03:21:45.159Z,5.9
2023-05-01T03:25:52.261Z,5.9
2023-05-01T03:27:55.030Z,5.9
2023-05-01T03:29:56.325Z,5.9
2023-05-01T03:31:58.286Z,6
2023-05-01T03:34:00.205Z,6
2023-05-01T03:36:02.324Z,6
2023-05-01T03:38:07.385Z,5.9
2023-05-01T03:40:09.455Z,5.9
2023-05-01T03:42:11.541Z,5.9
2023-05-01T03:58:31.210Z,6.1
2023-05-01T04:00:33.278Z,6.2
2023-05-01T04:02:35.407Z,6.3
2023-05-01T04:04:37.659Z,6.3
2023-05-01T04:06:42.570Z,6.3
2023-05-01T04:08:44.573Z,6.4
2023-05-01T04:10:46.559Z,6.4
2023-05-01T04:15:53.037Z,6.6
2023-05-01T04:17:54.986Z,6.6
2023-05-01T04:22:02.039Z,6.7
2023-05-01T04:46:28.704Z,7.1
2023-05-01T04:54:39.655Z,7.3
2023-05-01T04:56:41.568Z,7.3
2023-05-01T04:58:43.566Z,7.3
2023-05-01T05:00:45.552Z,7.4
2023-05-01T05:02:50.619Z,7.4
2023-05-01T05:04:52.534Z,7.4
2023-05-01T05:09:19.970Z,7.5
2023-05-01T05:13:21.466Z,7.5
2023-05-01T05:15:26.504Z,7.6
2023-05-01T05:17:28.519Z,7.6
2023-05-01T05:19:30.460Z,7.6
2023-05-01T05:23:34.445Z,7.8
2023-05-01T05:25:36.414Z,7.8
2023-05-01T05:35:49.317Z,8.1
2023-05-01T05:39:53.542Z,8.2
2023-05-01T05:54:10.221Z,8.5
2023-05-01T05:56:12.202Z,8.6
2023-05-01T05:58:17.231Z,8.7
2023-05-01T06:00:19.209Z,8.7
2023-05-01T06:07:27.682Z,8.9
2023-05-01T06:11:34.729Z,8.8
2023-05-01T06:15:38.748Z,8.9
2023-05-01T06:17:40.688Z,8.9
2023-05-01T06:23:46.618Z,9
2023-05-01T06:25:51.730Z,9.1
2023-05-01T06:27:53.630Z,9.2
2023-05-01T06:36:01.619Z,9.5
2023-05-01T06:40:08.604Z,9.7
2023-05-01T06:48:16.574Z,9.8
2023-05-01T06:50:18.568Z,9.9
2023-05-01T06:52:20.538Z,9.8
2023-05-01T06:59:32.090Z,10.2
2023-05-01T07:19:55.324Z,10.9
2023-05-01T07:22:00.170Z,11
2023-05-01T07:24:02.142Z,11
2023-05-01T07:32:10.149Z,11.4
2023-05-01T07:34:12.128Z,11.4
2023-05-01T07:42:23.206Z,11.8
2023-05-01T07:50:34.231Z,12
2023-05-01T07:55:40.745Z,12.1
2023-05-01T07:57:42.773Z,12.2
2023-05-01T07:59:44.771Z,12.4
2023-05-01T08:01:46.767Z,12.7
2023-05-01T08:03:51.892Z,12.9
2023-05-01T08:05:53.825Z,13
2023-05-01T08:07:55.845Z,12.9
2023-05-01T08:11:59.838Z,13.4
2023-05-01T08:22:12.892Z,14.1
2023-05-01T08:26:19.509Z,14.6
2023-05-01T08:28:20.367Z,14.3
2023-05-01T08:30:22.413Z,14.5
2023-05-01T08:32:27.465Z,15.2
2023-05-01T08:34:29.420Z,15.2
2023-05-01T08:38:33.452Z,15.2
2023-05-01T08:40:35.421Z,15.6
2023-05-01T08:42:37.418Z,15.7
2023-05-01T08:44:39.403Z,16
2023-05-01T08:46:44.606Z,16.3
2023-05-01T08:48:46.445Z,16.5
2023-05-01T08:53:05.244Z,17.1
2023-05-01T08:55:07.306Z,16.9
2023-05-01T08:57:10.367Z,16.9
2023-05-01T08:59:14.320Z,16.6
2023-05-01T09:01:16.324Z,16.6
2023-05-01T09:05:20.240Z,16.1
2023-05-01T09:07:22.208Z,16.6
2023-05-01T09:09:24.204Z,17.1
2023-05-01T09:11:26.178Z,17
2023-05-01T09:13:31.200Z,16.9
2023-05-01T09:15:33.188Z,16.8
2023-05-01T09:17:35.186Z,16.7
2023-05-01T09:19:37.180Z,16.7
2023-05-01T09:21:39.134Z,16.6
2023-05-01T09:23:41.103Z,17.2
2023-05-01T09:25:43.060Z,17.6
2023-05-01T09:27:48.090Z,18.2
2023-05-01T09:31:52.086Z,18.1
2023-05-01T09:33:53.994Z,18.2
2023-05-01T09:35:55.964Z,18.3
2023-05-01T09:37:57.908Z,18.1
2023-05-01T09:39:59.862Z,17.8
2023-05-01T09:42:04.915Z,18.5
2023-05-01T09:44:06.885Z,18.3
2023-05-01T09:46:08.878Z,18.3
2023-05-01T09:47:11.343Z,18.5
2023-05-01T09:51:15.225Z,18.7
2023-05-01T09:53:17.186Z,18.4
2023-05-01T09:55:23.146Z,18.6
2023-05-01T09:57:24.149Z,18.6
2023-05-01T09:59:26.085Z,18.5
2023-05-01T10:03:30.107Z,18.7
2023-05-01T10:07:33.861Z,18.3
2023-05-01T10:09:38.915Z,18.3
2023-05-01T10:19:48.603Z,18
2023-05-01T10:42:16.178Z,17.4
2023-05-01T10:43:18.685Z,17.6
2023-05-01T10:45:20.637Z,17.7
2023-05-01T10:47:22.622Z,17.6
2023-05-01T10:49:24.537Z,17.4
2023-05-01T10:53:31.536Z,17.5
2023-05-01T10:55:33.510Z,17.5
2023-05-01T10:57:35.452Z,17.5
2023-05-01T10:59:37.372Z,17.5
2023-05-01T11:01:39.386Z,17.7
2023-05-01T11:03:41.263Z,17.8
2023-05-01T11:07:48.248Z,18
2023-05-01T11:09:50.211Z,18.2
2023-05-01T11:11:52.163Z,18
2023-05-01T11:13:54.099Z,18.4
2023-05-01T11:15:56.128Z,18.4
2023-05-01T11:20:03.059Z,18.6
2023-05-01T11:22:05.020Z,18.5
2023-05-01T11:24:06.945Z,18.6
2023-05-01T11:26:08.898Z,18.7
2023-05-01T11:28:10.850Z,18.7
2023-05-01T11:30:12.846Z,19
2023-05-01T11:32:15.008Z,19.2
2023-05-01T11:34:19.812Z,18.8
2023-05-01T11:36:21.701Z,18.9
2023-05-01T11:38:23.631Z,19.1
2023-05-01T11:39:26.153Z,18.8
2023-05-01T11:43:30.040Z,19.4
2023-05-01T11:45:32.011Z,19.7
2023-05-01T11:47:37.033Z,20.1
2023-05-01T11:53:42.759Z,18.8
2023-05-01T11:59:48.558Z,18.6
2023-05-01T12:01:53.621Z,18.9
2023-05-01T12:05:57.479Z,19.1
2023-05-01T12:07:59.363Z,18.8
2023-05-01T12:10:01.307Z,18.6
2023-05-01T12:12:03.278Z,18.6
2023-05-01T12:14:05.159Z,18.4
2023-05-01T12:16:10.370Z,18.5
2023-05-01T12:18:12.192Z,18.6
2023-05-01T12:24:17.938Z,18.9
2023-05-01T12:36:49.496Z,19.5
2023-05-01T12:40:58.492Z,19.1
2023-05-01T12:43:03.581Z,19.2
2023-05-01T12:47:07.397Z,19.5
2023-05-01T12:49:09.314Z,19.3
2023-05-01T12:51:11.247Z,20
2023-05-01T12:53:13.185Z,19.9
2023-05-01T12:55:15.105Z,20.1
2023-05-01T12:57:20.121Z,20
2023-05-01T13:01:23.993Z,19.7
2023-05-01T13:03:25.966Z,20
2023-05-01T13:07:29.702Z,21.1
2023-05-01T13:09:31.598Z,20.9
2023-05-01T13:13:38.540Z,21
2023-05-01T13:17:42.313Z,20.3
2023-05-01T13:19:44.207Z,20.2
2023-05-01T13:29:57.072Z,20.5
2023-05-01T13:30:59.270Z,20.6
2023-05-01T13:33:01.224Z,20.8
2023-05-01T13:35:03.136Z,20.5
2023-05-01T13:37:04.978Z,20.5
2023-05-01T13:39:09.943Z,20.1
2023-05-01T13:41:11.836Z,20
2023-05-01T13:43:13.750Z,20.1
2023-05-01T13:47:17.540Z,20.3
2023-05-01T13:49:19.430Z,20.3
2023-05-01T13:51:21.354Z,20.6
2023-05-01T13:53:26.306Z,20.2
2023-05-01T13:57:30.091Z,20.1
2023-05-01T13:59:32.011Z,20
2023-05-01T14:01:33.933Z,19.8
2023-05-01T14:03:36.024Z,19.6
2023-05-01T14:05:37.709Z,19.1
2023-05-01T14:07:42.678Z,18.9
2023-05-01T14:09:44.594Z,18.6
2023-05-01T14:11:46.498Z,18.6
2023-05-01T14:13:48.416Z,18.3
2023-05-01T14:17:53.828Z,18.1
2023-05-01T14:27:07.009Z,17.8
2023-05-01T14:29:08.935Z,17.6
2023-05-01T14:31:10.905Z,17.4
2023-05-01T14:33:12.882Z,17.4
2023-05-01T14:35:17.822Z,17.3
2023-05-01T14:37:19.781Z,17.3
2023-05-01T14:39:21.733Z,17.3
2023-05-01T14:41:23.668Z,17.1
2023-05-01T14:43:25.608Z,17.3
2023-05-01T14:45:27.575Z,17.3
2023-05-01T14:47:29.597Z,17.2
2023-05-01T14:49:34.578Z,17.2
2023-05-01T14:53:38.476Z,17.3
2023-05-01T14:55:40.424Z,17.3
2023-05-01T14:57:42.370Z,17.2
2023-05-01T14:59:44.356Z,17.4
2023-05-01T15:01:46.303Z,17.2
2023-05-01T15:07:55.266Z,17.2
2023-05-01T15:09:57.273Z,17.1
2023-05-01T15:11:59.209Z,17.3
2023-05-01T15:14:01.222Z,17.3
2023-05-01T15:16:03.185Z,17.1
2023-05-01T15:18:08.234Z,17.4
2023-05-01T15:22:12.116Z,17.8
2023-05-01T15:23:14.628Z,17.8
2023-05-01T15:25:16.645Z,17.8
2023-05-01T15:27:18.552Z,17.5
2023-05-01T15:29:20.507Z,17.6
2023-05-01T15:31:25.599Z,17.5
2023-05-01T15:33:27.582Z,17.5
2023-05-01T15:39:33.425Z,17.4
2023-05-01T15:41:35.378Z,17.7
2023-05-01T15:43:37.349Z,17.8
2023-05-01T15:45:42.658Z,18.1
2023-05-01T15:47:44.396Z,18.2
2023-05-01T15:49:46.297Z,18.4
2023-05-01T15:59:59.356Z,19.3
2023-05-01T16:04:03.110Z,19
2023-05-01T16:08:06.846Z,19.3
2023-05-01T16:10:08.778Z,18.2
2023-05-01T16:12:10.672Z,18.2
2023-05-01T16:14:15.738Z,19.4
2023-05-01T16:16:17.745Z,19.4
2023-05-01T16:18:19.533Z,19.7
2023-05-01T16:34:57.655Z,18.5
2023-05-01T16:57:25.075Z,16.6
2023-05-01T17:14:46.340Z,17.9
2023-05-01T17:16:50.034Z,17.7
2023-05-01T17:18:50.297Z,17
2023-05-01T17:24:59.400Z,15.6
2023-05-01T17:27:01.215Z,15.5
2023-05-01T17:31:05.123Z,15.3
2023-05-01T17:33:07.546Z,15.1
2023-05-01T17:39:16.136Z,14.7
2023-05-01T17:47:26.055Z,14.4
2023-05-01T17:49:26.089Z,14.3
2023-05-01T17:53:33.164Z,14.3
2023-05-01T17:55:35.160Z,14.2
2023-05-01T18:07:50.233Z,15.1
2023-05-01T18:10:54.757Z,15.5
2023-05-01T18:12:56.751Z,15.7
2023-05-01T18:14:58.761Z,15.1
2023-05-01T18:19:05.811Z,14.6
2023-05-01T18:23:09.809Z,14.5
2023-05-01T18:25:11.804Z,14.4
2023-05-01T18:37:26.886Z,14
2023-05-01T18:39:28.908Z,13.9
2023-05-01T18:43:32.902Z,13.8
2023-05-01T18:45:34.916Z,13.8
2023-05-01T18:47:39.962Z,13.8
2023-05-01T18:49:41.987Z,13.8
2023-05-01T18:51:43.980Z,13.8
2023-05-01T18:53:45.970Z,13.8
2023-05-01T18:55:47.981Z,13.8
2023-05-01T18:57:49.979Z,13.8
2023-05-01T18:59:51.992Z,13.7
2023-05-01T19:03:59.121Z,13.6
2023-05-01T19:07:03.608Z,13.5
2023-05-01T19:09:05.640Z,13.5
2023-05-01T19:11:07.605Z,13.4
2023-05-01T19:13:09.644Z,13.4
2023-05-01T19:15:14.817Z,13.3
2023-05-01T19:17:16.696Z,13.3
2023-05-01T19:19:18.710Z,13.3
2023-05-01T19:21:20.728Z,13.2
2023-05-01T19:23:22.732Z,13.2
2023-05-01T19:25:24.729Z,13.2
2023-05-01T19:27:26.742Z,13.2
2023-05-01T19:29:31.818Z,13.1
2023-05-01T19:31:33.859Z,13.1
2023-05-01T19:33:35.850Z,13
2023-05-01T19:37:39.878Z,12.9
2023-05-01T19:39:41.887Z,12.9
2023-05-01T19:41:43.870Z,12.9
2023-05-01T19:43:48.948Z,12.8
2023-05-01T19:45:51.006Z,12.8
2023-05-01T19:47:53.013Z,12.7
2023-05-01T19:49:54.986Z,12.6
2023-05-01T19:51:56.989Z,12.6
2023-05-01T19:53:59.021Z,12.5
2023-05-01T19:56:01.045Z,12.5
2023-05-01T19:58:06.119Z,12.4
2023-05-01T20:00:08.144Z,12.4
2023-05-01T20:02:10.269Z,12.3
2023-05-01T20:04:30.702Z,12.3
2023-05-01T20:06:32.742Z,12.3
2023-05-01T20:08:35.151Z,12.2
2023-05-01T20:10:40.181Z,12.1
2023-05-01T20:14:44.196Z,12
2023-05-01T20:16:46.337Z,12
2023-05-01T20:18:48.223Z,11.9
2023-05-01T20:20:50.237Z,11.9
2023-05-01T20:22:52.270Z,11.8
2023-05-01T20:24:57.367Z,11.7
2023-05-01T20:29:01.354Z,11.7
2023-05-01T20:31:03.472Z,11.6
2023-05-01T20:37:09.412Z,11.6
2023-05-01T20:39:14.474Z,11.5
2023-05-01T20:41:10.554Z,11.4
2023-05-01T20:45:14.578Z,11.3
2023-05-01T20:47:16.614Z,11.3
2023-05-01T20:51:20.607Z,11.3
2023-05-01T20:57:29.724Z,11.3
2023-05-01T20:58:32.281Z,11.3
2023-05-01T21:00:34.276Z,11.3
2023-05-01T21:02:36.416Z,11.3
2023-05-01T21:04:38.304Z,11.4
2023-05-01T21:06:43.383Z,11.5
2023-05-01T21:08:45.374Z,11.5
2023-05-01T21:12:49.386Z,11.6
2023-05-01T21:14:51.419Z,11.6
2023-05-01T21:18:55.418Z,11.5
2023-05-01T21:21:00.500Z,11.5
2023-05-01T21:25:04.536Z,11.4
2023-05-01T21:27:06.546Z,11.5
2023-05-01T21:31:10.606Z,11.5
2023-05-01T21:33:12.651Z,11.5
2023-05-01T21:39:21.676Z,11.5
2023-05-01T21:47:29.934Z,11.5
2023-05-01T21:53:38.799Z,11.4
2023-05-01T21:54:41.330Z,11.3
2023-05-01T21:58:45.395Z,11.3
2023-05-01T22:00:47.386Z,11.2
2023-05-01T22:02:52.560Z,11.2
2023-05-01T22:06:56.414Z,11
2023-05-01T22:13:02.434Z,10.7
2023-05-01T22:15:04.447Z,10.6
2023-05-01T22:17:09.742Z,10.6
2023-05-01T22:25:17.557Z,10.4
2023-05-01T22:33:28.609Z,10.3
2023-05-01T22:37:32.628Z,10.3
2023-05-01T22:39:34.647Z,10.3
2023-05-01T22:43:38.665Z,10.2
2023-05-01T22:45:43.712Z,10.1
2023-05-01T22:47:45.753Z,10.1
2023-05-01T22:50:50.289Z,10.1
2023-05-01T22:56:56.322Z,10
2023-05-01T22:59:01.353Z,9.9
2023-05-01T23:01:03.392Z,9.9
2023-05-01T23:07:09.332Z,9.8
2023-05-01T23:09:11.352Z,9.8
2023-05-01T23:11:13.350Z,9.8
2023-05-01T23:13:18.410Z,9.8
2023-05-01T23:15:20.410Z,9.9
2023-05-01T23:17:22.436Z,10
2023-05-01T23:23:28.418Z,10.1
2023-05-01T23:25:30.445Z,10.2
2023-05-01T23:27:35.481Z,10.2
2023-05-01T23:29:37.500Z,10.2
2023-05-01T23:31:39.514Z,10.3
2023-05-01T23:35:43.497Z,10.4
2023-05-01T23:37:45.465Z,10.4
2023-05-01T23:39:47.474Z,10.4
2023-05-01T23:43:54.552Z,10.4
2023-05-01T23:45:56.527Z,10.5
2023-05-01T23:50:21.249Z,10.5
2023-05-01T23:52:23.254Z,10.5
2023-05-01T23:56:30.343Z,10.5
